Time;durP1;ratioP1;P1;durP2;ratioP2;P2;SDS_P1;SDS_P2;PMS_P1;PMS_P2;Temp;Humidity;BMP_temperature;BMP_pressure;BME280_temperature;BME280_humidity;BME280_pressure;Samples;Min_cycle;Max_cycle;Signal;HPM_P1;HPM_P2
2022/04/01 00:02:25;;;;;;;21.25;12.75;;;;;;;;;;5016383;28;20030;-39
2022/04/01 00:04:50;;;;;;;19.52;11.82;;;;;;;;;;5016359;28;20462;-38
2022/04/01 00:07:17;;;;;;;21.90;13.02;;;;;;;;;;5016000;28;20108;-38
2022/04/01 00:09:42;;;;;;;23.13;14.07;;;;;;;;;;5016227;28;20156;-39
2022/04/01 00:12:09;;;;;;;23.00;14.45;;;;;;;;;;5015864;28;20062;-38
2022/04/01 00:14:35;;;;;;;30.38;11.13;;;;;;;;;;5015964;28;20061;-38
2022/04/01 00:17:01;;;;;;;19.58;11.68;;;;;;;;;;5015876;28;20022;-39
2022/04/01 00:19:27;;;;;;;19.67;11.90;;;;;;;;;;5015749;28;20030;-39
2022/04/01 00:21:54;;;;;;;21.30;12.85;;;;;;;;;;5015996;28;20064;-38
2022/04/01 00:24:20;;;;;;;20.63;12.63;;;;;;;;;;5015710;28;20488;-39
2022/04/01 00:26:46;;;;;;;22.42;13.05;;;;;;;;;;5015634;28;20058;-39
2022/04/01 00:29:15;;;;;;;23.27;12.82;;;;;;;;;;5015775;28;20022;-39
2022/04/01 00:31:58;;;;;;;27.42;13.55;;;;;;;;;;5015712;28;20036;-39
2022/04/01 00:34:25;;;;;;;25.52;13.05;;;;;;;;;;5015445;28;20022;-39
2022/04/01 00:36:50;;;;;;;23.65;13.02;;;;;;;;;;5015670;28;20121;-38
2022/04/01 00:39:18;;;;;;;21.55;11.85;;;;;;;;;;5015692;28;20120;-38
2022/04/01 00:41:46;;;;;;;22.15;12.70;;;;;;;;;;5015286;28;20036;-38
2022/04/01 00:44:18;;;;;;;17.45;11.10;;;;;;;;;;5015324;28;20026;-38
2022/04/01 00:46:46;;;;;;;22.90;12.38;;;;;;;;;;5015329;28;20084;-39
2022/04/01 00:49:13;;;;;;;26.70;13.68;;;;;;;;;;5015311;28;20076;-38
2022/04/01 00:51:41;;;;;;;20.33;11.48;;;;;;;;;;5015430;28;20032;-38
2022/04/01 00:54:08;;;;;;;21.88;11.15;;;;;;;;;;5015159;28;20018;-38
2022/04/01 00:56:34;;;;;;;14.30;7.22;;;;;;;;;;5015431;28;20108;-38
2022/04/01 00:59:01;;;;;;;19.85;9.98;;;;;;;;;;5015141;28;20072;-38
2022/04/01 01:01:27;;;;;;;12.48;7.55;;;;;;;;;;5014992;28;20088;-38
2022/04/01 01:03:52;;;;;;;7.63;5.10;;;;;;;;;;5015256;28;20030;-38
2022/04/01 01:06:20;;;;;;;20.60;9.35;;;;;;;;;;5014934;28;20041;-40
2022/04/01 01:08:45;;;;;;;22.15;9.95;;;;;;;;;;5015161;28;20347;-38
2022/04/01 01:11:11;;;;;;;22.58;12.00;;;;;;;;;;5013620;28;20087;-38
2022/04/01 01:13:37;;;;;;;24.83;13.57;;;;;;;;;;5014665;28;20038;-38
2022/04/01 01:16:03;;;;;;;27.35;13.10;;;;;;;;;;5014716;28;20034;-38
2022/04/01 01:18:29;;;;;;;27.50;11.70;;;;;;;;;;5014620;28;20018;-38
2022/04/01 01:20:54;;;;;;;18.85;10.13;;;;;;;;;;5014741;28;20030;-43
2022/04/01 01:23:27;;;;;;;33.28;12.52;;;;;;;;;;5014629;28;20030;-38
2022/04/01 01:25:57;;;;;;;23.65;13.77;;;;;;;;;;5014913;28;20034;-38
2022/04/01 01:28:24;;;;;;;25.27;14.02;;;;;;;;;;5014574;28;20591;-38
2022/04/01 01:30:50;;;;;;;28.52;15.13;;;;;;;;;;5014714;28;20018;-38
2022/04/01 01:33:19;;;;;;;27.67;14.77;;;;;;;;;;5014517;28;20052;-38
2022/04/01 01:35:45;;;;;;;27.33;15.40;;;;;;;;;;5014351;28;20028;-38
2022/04/01 01:38:11;;;;;;;25.60;13.93;;;;;;;;;;5014271;28;20117;-38
2022/04/01 01:40:36;;;;;;;24.75;14.68;;;;;;;;;;5014671;28;20032;-38
2022/04/01 01:43:02;;;;;;;24.23;13.82;;;;;;;;;;5014490;28;20064;-39
2022/04/01 01:45:29;;;;;;;25.63;13.60;;;;;;;;;;5014188;28;20058;-38
2022/04/01 01:47:56;;;;;;;21.30;13.95;;;;;;;;;;5014068;28;20057;-39
2022/04/01 01:55:49;;;;;;;17.63;10.75;;;;;;;;;;5014242;28;20057;-38
2022/04/01 01:58:15;;;;;;;17.35;11.40;;;;;;;;;;5013973;28;20458;-38
2022/04/01 02:00:42;;;;;;;24.98;10.93;;;;;;;;;;5014039;28;20030;-39
2022/04/01 02:03:09;;;;;;;19.13;7.65;;;;;;;;;;5014162;28;20022;-39
2022/04/01 02:05:34;;;;;;;29.08;13.90;;;;;;;;;;5014049;28;20024;-38
2022/04/01 02:08:01;;;;;;;18.38;11.43;;;;;;;;;;5014026;28;20025;-38
2022/04/01 02:10:26;;;;;;;35.08;15.50;;;;;;;;;;5014049;28;20398;-38
2022/04/01 02:12:52;;;;;;;20.30;10.25;;;;;;;;;;5013656;28;20048;-38
2022/04/01 02:15:18;;;;;;;9.73;6.75;;;;;;;;;;5013671;28;20431;-39
2022/04/01 02:17:44;;;;;;;17.08;9.98;;;;;;;;;;5013612;28;20034;-38
2022/04/01 02:20:10;;;;;;;9.75;7.20;;;;;;;;;;5013484;28;20061;-38
2022/04/01 02:22:39;;;;;;;14.18;8.82;;;;;;;;;;5013159;28;20508;-38
2022/04/01 02:25:07;;;;;;;27.00;13.85;;;;;;;;;;5013709;28;20101;-40
2022/04/01 02:27:36;;;;;;;25.63;13.60;;;;;;;;;;5013714;28;20156;-38
2022/04/01 02:30:10;;;;;;;23.13;13.45;;;;;;;;;;5013402;28;20477;-38
2022/04/01 02:32:39;;;;;;;29.05;13.57;;;;;;;;;;5013518;28;20393;-38
2022/04/01 02:35:05;;;;;;;21.00;12.88;;;;;;;;;;5013348;28;20410;-40
2022/04/01 02:37:31;;;;;;;25.17;13.07;;;;;;;;;;5013313;28;20100;-39
2022/04/01 02:39:56;;;;;;;22.23;12.35;;;;;;;;;;5013213;28;20066;-38
2022/04/01 02:42:22;;;;;;;22.33;11.90;;;;;;;;;;5013276;28;20029;-39
2022/04/01 02:44:47;;;;;;;20.20;12.25;;;;;;;;;;5013346;28;20028;-39
2022/04/01 02:47:13;;;;;;;20.92;12.05;;;;;;;;;;5013320;28;20030;-39
2022/04/01 02:49:38;;;;;;;26.63;11.88;;;;;;;;;;5013052;28;20046;-38
2022/04/01 02:52:05;;;;;;;16.67;11.95;;;;;;;;;;5012966;28;20072;-39
2022/04/01 02:54:33;;;;;;;20.80;11.48;;;;;;;;;;5013249;28;20378;-39
2022/04/01 02:56:59;;;;;;;18.00;11.05;;;;;;;;;;5012952;28;20022;-39
2022/04/01 02:59:25;;;;;;;18.67;11.25;;;;;;;;;;5012930;28;20076;-38
2022/04/01 03:01:51;;;;;;;19.02;11.05;;;;;;;;;;5012917;28;20037;-39
2022/04/01 03:04:17;;;;;;;18.33;11.48;;;;;;;;;;5012821;28;20022;-38
2022/04/01 03:06:45;;;;;;;25.27;10.32;;;;;;;;;;5012702;28;20033;-39
2022/04/01 03:09:12;;;;;;;17.63;11.10;;;;;;;;;;5013070;28;20037;-39
2022/04/01 03:11:38;;;;;;;16.98;10.52;;;;;;;;;;5012926;28;20017;-39
2022/04/01 03:14:04;;;;;;;17.83;10.25;;;;;;;;;;5012727;28;20021;-42
2022/04/01 03:16:31;;;;;;;14.00;9.85;;;;;;;;;;5012900;28;20033;-39
2022/04/01 03:18:57;;;;;;;18.85;10.00;;;;;;;;;;5012880;28;20026;-40
2022/04/01 03:21:26;;;;;;;16.05;9.43;;;;;;;;;;5012603;28;20504;-39
2022/04/01 03:23:52;;;;;;;16.65;9.55;;;;;;;;;;5012831;28;20373;-38
2022/04/01 03:26:20;;;;;;;15.52;9.07;;;;;;;;;;5012585;28;20041;-38
2022/04/01 03:28:49;;;;;;;7.45;5.80;;;;;;;;;;5012745;28;20025;-39
2022/04/01 03:31:15;;;;;;;4.80;3.92;;;;;;;;;;5012667;28;20022;-38
2022/04/01 03:33:44;;;;;;;13.85;8.25;;;;;;;;;;5013365;28;20030;-38
2022/04/01 03:36:10;;;;;;;5.50;4.05;;;;;;;;;;5016869;28;20439;-38
2022/04/01 03:38:37;;;;;;;3.75;3.30;;;;;;;;;;5016596;28;20076;-38
2022/04/01 03:41:03;;;;;;;7.25;4.90;;;;;;;;;;5016480;28;20030;-38
2022/04/01 03:43:29;;;;;;;7.15;5.25;;;;;;;;;;5016388;28;20030;-39
2022/04/01 03:45:55;;;;;;;4.35;3.80;;;;;;;;;;5016723;28;20033;-38
2022/04/01 03:48:28;;;;;;;15.02;8.02;;;;;;;;;;5016603;28;20030;-38
2022/04/01 03:50:58;;;;;;;18.42;11.15;;;;;;;;;;5016186;28;20042;-38
2022/04/01 03:53:27;;;;;;;19.35;11.82;;;;;;;;;;5016524;28;20125;-38
2022/04/01 03:55:55;;;;;;;23.95;13.13;;;;;;;;;;5016495;28;20034;-39
2022/04/01 03:58:27;;;;;;;25.48;12.25;;;;;;;;;;5016475;28;20418;-38
2022/04/01 04:00:54;;;;;;;24.42;12.55;;;;;;;;;;5016418;28;20030;-38
2022/04/01 04:03:20;;;;;;;20.98;11.23;;;;;;;;;;5016261;28;20385;-39
2022/04/01 04:05:47;;;;;;;22.75;11.65;;;;;;;;;;5016223;28;20022;-41
2022/04/01 04:08:17;;;;;;;9.68;6.57;;;;;;;;;;5015967;28;20490;-39
2022/04/01 04:10:46;;;;;;;5.03;4.00;;;;;;;;;;5016135;28;20030;-38
2022/04/01 04:13:12;;;;;;;9.30;6.47;;;;;;;;;;5015963;28;20034;-38
2022/04/01 04:15:48;;;;;;;20.25;9.13;;;;;;;;;;5016181;28;20055;-48
2022/04/01 04:18:16;;;;;;;19.70;9.50;;;;;;;;;;5015869;28;20373;-39
2022/04/01 04:20:54;;;;;;;16.85;10.00;;;;;;;;;;4998617;28;20021;-38
2022/04/01 04:23:23;;;;;;;10.43;3.67;;;;;;;;;;5016183;28;20053;-44
2022/04/01 04:26:13;;;;;;;21.53;11.60;;;;;;;;;;5015738;28;20022;-43
2022/04/01 04:28:40;;;;;;;19.65;10.90;;;;;;;;;;5015417;28;20033;-42
2022/04/01 04:31:09;;;;;;;19.63;11.20;;;;;;;;;;5015440;28;20030;-38
2022/04/01 04:33:41;;;;;;;12.40;8.10;;;;;;;;;;5015824;28;20030;-38
2022/04/01 04:36:10;;;;;;;15.73;8.02;;;;;;;;;;5015508;28;20026;-39
2022/04/01 04:38:38;;;;;;;15.60;7.63;;;;;;;;;;5015852;28;20100;-39
2022/04/01 04:41:08;;;;;;;18.80;9.52;;;;;;;;;;5015467;28;20057;-38
2022/04/01 04:43:41;;;;;;;13.27;7.82;;;;;;;;;;5015489;28;20100;-38
2022/04/01 04:46:08;;;;;;;12.32;7.40;;;;;;;;;;5015006;28;20026;-41
2022/04/01 04:48:36;;;;;;;22.83;12.07;;;;;;;;;;5015400;28;20034;-39
2022/04/01 04:51:05;;;;;;;26.85;13.43;;;;;;;;;;5014994;28;20095;-40
2022/04/01 04:53:34;;;;;;;21.08;11.25;;;;;;;;;;5014970;28;20033;-40
2022/04/01 04:56:04;;;;;;;16.88;8.55;;;;;;;;;;5015380;28;20426;-39
2022/04/01 04:58:42;;;;;;;16.73;6.65;;;;;;;;;;5014982;28;20033;-42
2022/04/01 05:01:35;;;;;;;17.73;8.73;;;;;;;;;;5015095;28;20033;-42
2022/04/01 05:04:09;;;;;;;17.77;9.48;;;;;;;;;;4997474;28;20030;-44
2022/04/01 05:06:40;;;;;;;15.25;8.88;;;;;;;;;;5015160;28;20044;-40
2022/04/01 05:09:12;;;;;;;18.63;10.55;;;;;;;;;;5015039;28;20034;-43
2022/04/01 05:11:44;;;;;;;29.27;13.25;;;;;;;;;;5015179;28;20026;-39
2022/04/01 05:14:46;;;;;;;30.65;17.02;;;;;;;;;;5014883;28;20029;-39
2022/04/01 05:17:25;;;;;;;28.08;14.38;;;;;;;;;;5014224;28;20040;-39
2022/04/01 05:19:59;;;;;;;18.17;8.65;;;;;;;;;;5014731;28;20026;-39
2022/04/01 05:22:37;;;;;;;13.73;8.40;;;;;;;;;;5014585;28;20026;-44
2022/04/01 05:25:04;;;;;;;11.35;7.97;;;;;;;;;;5013709;28;20056;-43
2022/04/01 05:27:32;;;;;;;16.67;8.68;;;;;;;;;;5012920;28;20169;-43
2022/04/01 05:30:18;;;;;;;19.13;11.50;;;;;;;;;;5012645;28;20037;-42
2022/04/01 05:33:06;;;;;;;18.13;11.27;;;;;;;;;;5013066;28;20518;-38
2022/04/01 05:35:35;;;;;;;20.17;11.95;;;;;;;;;;5014126;28;20109;-39
2022/04/01 05:38:01;;;;;;;25.27;11.27;;;;;;;;;;5014585;28;20116;-38
2022/04/01 05:40:31;;;;;;;15.55;9.65;;;;;;;;;;5014207;28;20072;-40
2022/04/01 05:42:59;;;;;;;14.50;8.27;;;;;;;;;;5014013;28;20034;-38
2022/04/01 05:45:29;;;;;;;16.60;7.97;;;;;;;;;;5014063;28;20041;-38
2022/04/01 05:47:56;;;;;;;14.18;8.15;;;;;;;;;;5014281;28;20076;-38
2022/04/01 05:50:23;;;;;;;21.08;8.57;;;;;;;;;;5012444;28;20054;-39
2022/04/01 05:52:51;;;;;;;16.85;8.68;;;;;;;;;;5014199;28;20025;-39
2022/04/01 05:55:20;;;;;;;13.27;8.20;;;;;;;;;;5014053;28;20026;-38
2022/04/01 05:57:46;;;;;;;20.02;8.00;;;;;;;;;;5013444;28;20026;-38
2022/04/01 06:00:12;;;;;;;12.63;7.35;;;;;;;;;;5013776;28;20531;-44
2022/04/01 06:02:46;;;;;;;14.45;8.43;;;;;;;;;;5013970;28;20482;-45
2022/04/01 06:05:33;;;;;;;14.75;8.32;;;;;;;;;;5013715;28;20030;-46
2022/04/01 06:08:20;;;;;;;26.52;10.38;;;;;;;;;;5013988;28;20117;-39
2022/04/01 06:11:04;;;;;;;19.77;9.23;;;;;;;;;;5013720;28;20109;-46
2022/04/01 06:14:04;;;;;;;19.52;9.40;;;;;;;;;;5013584;28;20034;-42
2022/04/01 06:16:48;;;;;;;18.17;9.77;;;;;;;;;;5010570;28;20466;-39
2022/04/01 06:19:43;;;;;;;23.15;9.07;;;;;;;;;;5013722;28;20022;-41
2022/04/01 06:22:16;;;;;;;15.57;9.27;;;;;;;;;;5000216;28;20049;-39
2022/04/01 06:24:55;;;;;;;14.60;8.73;;;;;;;;;;5013450;28;20036;-39
2022/04/01 06:27:41;;;;;;;9.82;6.40;;;;;;;;;;5013751;28;20425;-41
2022/04/01 06:30:09;;;;;;;8.55;5.63;;;;;;;;;;5013211;28;20056;-39
2022/04/01 06:32:49;;;;;;;10.90;5.88;;;;;;;;;;5013414;28;20026;-45
2022/04/01 06:35:18;;;;;;;;;;;;;;;;;;5013827;28;20030;-43
2022/04/01 06:38:05;;;;;;;10.98;6.28;;;;;;;;;;5012761;28;19955;-39
2022/04/01 06:40:30;;;;;;;8.57;4.88;;;;;;;;;;5013404;28;20658;-41
2022/04/01 06:42:57;;;;;;;9.90;5.93;;;;;;;;;;5012412;28;20069;-45
2022/04/01 06:45:22;;;;;;;6.18;4.55;;;;;;;;;;5013307;28;20180;-44
2022/04/01 06:47:48;;;;;;;17.88;7.25;;;;;;;;;;5011419;28;20129;-43
2022/04/01 06:50:16;;;;;;;14.60;8.05;;;;;;;;;;5011353;28;20054;-44
2022/04/01 06:52:43;;;;;;;17.90;7.80;;;;;;;;;;5011462;28;20037;-40
2022/04/01 06:55:09;;;;;;;7.80;4.38;;;;;;;;;;5011744;28;20033;-41
2022/04/01 06:57:35;;;;;;;12.27;7.07;;;;;;;;;;5011068;28;20506;-42
2022/04/01 07:00:05;;;;;;;14.18;6.45;;;;;;;;;;5011591;28;20085;-39
2022/04/01 07:02:31;;;;;;;12.60;7.07;;;;;;;;;;5011110;28;20022;-45
2022/04/01 07:04:57;;;;;;;12.70;6.07;;;;;;;;;;5011194;28;20041;-42
2022/04/01 07:07:22;;;;;;;13.82;7.03;;;;;;;;;;5011154;28;20032;-46
2022/04/01 07:09:48;;;;;;;21.17;7.22;;;;;;;;;;5011520;28;20104;-42
2022/04/01 07:12:13;;;;;;;11.45;6.15;;;;;;;;;;5011325;28;20488;-41
2022/04/01 07:14:39;;;;;;;10.00;6.40;;;;;;;;;;4993476;28;20022;-39
2022/04/01 07:17:04;;;;;;;11.23;5.78;;;;;;;;;;5011035;28;20026;-44
2022/04/01 07:19:30;;;;;;;9.73;6.30;;;;;;;;;;5011203;28;20198;-47
2022/04/01 07:21:56;;;;;;;8.75;6.10;;;;;;;;;;5010848;28;20045;-45
2022/04/01 07:24:21;;;;;;;15.20;6.70;;;;;;;;;;5010844;28;20029;-45
2022/04/01 07:26:47;;;;;;;13.07;5.43;;;;;;;;;;5011144;28;20054;-45
2022/04/01 07:29:13;;;;;;;9.32;5.60;;;;;;;;;;5010858;28;20084;-48
2022/04/01 07:34:42;;;;;;;7.78;5.03;;;;;;;;;;5010923;28;20096;-48
2022/04/01 07:37:09;;;;;;;9.02;4.53;;;;;;;;;;5011236;28;20018;-39
2022/04/01 07:39:35;;;;;;;9.38;4.55;;;;;;;;;;5010766;28;20030;-38
2022/04/01 07:42:01;;;;;;;12.82;5.13;;;;;;;;;;5011062;28;20065;-46
2022/04/01 07:44:26;;;;;;;8.18;4.50;;;;;;;;;;5010737;28;20443;-45
2022/04/01 07:46:52;;;;;;;10.55;5.18;;;;;;;;;;5010651;28;20437;-37
2022/04/01 07:49:18;;;;;;;9.90;4.35;;;;;;;;;;5010625;28;20057;-39
2022/04/01 07:51:45;;;;;;;15.48;4.40;;;;;;;;;;5010538;28;20429;-39
2022/04/01 07:54:14;;;;;;;10.50;4.88;;;;;;;;;;5010475;28;20026;-39
2022/04/01 07:56:41;;;;;;;7.75;3.97;;;;;;;;;;5008898;28;20398;-38
2022/04/01 07:59:14;;;;;;;11.73;4.90;;;;;;;;;;5010647;28;20076;-38
2022/04/01 08:01:40;;;;;;;6.65;4.30;;;;;;;;;;5010806;28;20022;-38
2022/04/01 08:04:05;;;;;;;8.38;4.53;;;;;;;;;;5010492;28;20101;-38
2022/04/01 08:06:31;;;;;;;9.13;4.50;;;;;;;;;;5010659;28;20038;-41
2022/04/01 08:08:58;;;;;;;13.45;4.22;;;;;;;;;;5010398;28;20026;-42
2022/04/01 08:11:27;;;;;;;7.47;4.85;;;;;;;;;;5010816;28;20382;-41
2022/04/01 08:13:54;;;;;;;8.40;5.45;;;;;;;;;;5010733;28;20121;-39
2022/04/01 08:16:20;;;;;;;9.95;5.03;;;;;;;;;;5010620;28;20036;-43
2022/04/01 08:18:45;;;;;;;7.50;5.18;;;;;;;;;;5010337;28;20512;-40
2022/04/01 08:21:11;;;;;;;9.75;5.47;;;;;;;;;;5013958;28;20065;-39
2022/04/01 08:23:37;;;;;;;7.38;4.93;;;;;;;;;;5014025;28;20022;-49
2022/04/01 08:26:04;;;;;;;11.98;5.32;;;;;;;;;;5013589;28;20034;-40
2022/04/01 08:28:30;;;;;;;8.35;5.38;;;;;;;;;;5014231;28;20030;-40
2022/04/01 08:30:56;;;;;;;16.08;5.50;;;;;;;;;;5014195;28;20032;-45
2022/04/01 08:33:21;;;;;;;10.73;4.30;;;;;;;;;;5013989;28;20478;-44
2022/04/01 08:35:47;;;;;;;7.75;4.93;;;;;;;;;;5013856;28;20050;-44
2022/04/01 08:38:14;;;;;;;11.40;5.22;;;;;;;;;;5006666;28;20030;-46
2022/04/01 08:40:39;;;;;;;15.68;7.05;;;;;;;;;;5007448;28;20121;-39
2022/04/01 08:43:05;;;;;;;13.10;6.65;;;;;;;;;;5011504;28;20141;-42
2022/04/01 08:45:33;;;;;;;10.48;5.72;;;;;;;;;;5013405;28;20030;-37
2022/04/01 08:48:00;;;;;;;10.57;6.68;;;;;;;;;;5012972;28;20113;-38
2022/04/01 08:50:26;;;;;;;12.38;5.93;;;;;;;;;;5013183;28;20094;-38
2022/04/01 08:52:52;;;;;;;9.82;6.80;;;;;;;;;;5013373;28;20418;-50
2022/04/01 08:55:19;;;;;;;13.25;7.80;;;;;;;;;;5013406;28;20127;-40
2022/04/01 08:57:45;;;;;;;17.58;8.98;;;;;;;;;;5013070;28;20030;-44
2022/04/01 09:00:13;;;;;;;13.88;8.73;;;;;;;;;;5013474;28;20701;-46
2022/04/01 09:02:42;;;;;;;13.43;9.40;;;;;;;;;;5013259;28;20041;-41
2022/04/01 09:05:09;;;;;;;13.90;10.10;;;;;;;;;;5013260;28;20048;-43
2022/04/01 09:07:34;;;;;;;11.13;7.50;;;;;;;;;;5012496;28;20030;-51
2022/04/01 09:10:07;;;;;;;12.95;7.38;;;;;;;;;;5013163;28;20022;-39
2022/04/01 09:12:34;;;;;;;12.32;7.97;;;;;;;;;;5013230;28;20116;-39
2022/04/01 09:15:02;;;;;;;12.48;8.18;;;;;;;;;;5012990;28;20109;-39
2022/04/01 09:17:42;;;;;;;11.15;7.30;;;;;;;;;;5012529;28;20026;-43
2022/04/01 09:20:09;;;;;;;12.38;7.88;;;;;;;;;;5013319;28;20394;-49
2022/04/01 09:22:36;;;;;;;11.48;8.40;;;;;;;;;;5012560;28;20173;-46
2022/04/01 09:25:10;;;;;;;10.50;6.90;;;;;;;;;;5013192;28;20028;-40
2022/04/01 09:27:46;;;;;;;13.43;7.28;;;;;;;;;;5012863;28;20470;-42
2022/04/01 09:30:13;;;;;;;6.57;5.18;;;;;;;;;;5013176;28;20034;-43
2022/04/01 09:32:44;;;;;;;7.18;5.38;;;;;;;;;;5011973;28;20815;-40
2022/04/01 09:35:11;;;;;;;10.50;7.20;;;;;;;;;;5012960;28;20032;-48
2022/04/01 09:37:38;;;;;;;8.60;5.63;;;;;;;;;;5013038;28;20080;-46
2022/04/01 09:40:04;;;;;;;6.82;5.18;;;;;;;;;;5012926;28;20034;-46
2022/04/01 09:42:30;;;;;;;6.32;5.13;;;;;;;;;;5012881;28;20510;-45
2022/04/01 09:44:59;;;;;;;8.40;6.10;;;;;;;;;;5012808;28;20109;-40
2022/04/01 09:47:24;;;;;;;9.30;5.80;;;;;;;;;;5012284;28;20485;-43
2022/04/01 09:49:52;;;;;;;8.30;5.47;;;;;;;;;;5012232;28;20049;-41
2022/04/01 09:52:20;;;;;;;7.35;5.07;;;;;;;;;;5012352;28;20382;-49
2022/04/01 09:54:54;;;;;;;6.03;4.35;;;;;;;;;;5012397;28;20157;-38
2022/04/01 09:57:22;;;;;;;7.43;5.55;;;;;;;;;;5012643;28;20029;-38
2022/04/01 09:59:49;;;;;;;5.95;4.13;;;;;;;;;;5012650;28;20041;-39
2022/04/01 10:02:15;;;;;;;4.82;3.45;;;;;;;;;;5012223;28;20138;-40
2022/04/01 10:04:42;;;;;;;7.60;5.45;;;;;;;;;;4979087;28;20441;-39
2022/04/01 10:07:09;;;;;;;7.43;4.53;;;;;;;;;;5012289;28;20037;-39
2022/04/01 10:09:36;;;;;;;4.53;3.08;;;;;;;;;;5012083;28;20478;-38
2022/04/01 10:12:07;;;;;;;3.88;2.83;;;;;;;;;;5011753;28;20026;-44
2022/04/01 10:14:35;;;;;;;6.80;4.90;;;;;;;;;;5012254;28;20038;-45
2022/04/01 10:17:03;;;;;;;3.58;3.20;;;;;;;;;;4994431;28;20029;-43
2022/04/01 10:19:32;;;;;;;3.05;2.78;;;;;;;;;;5011876;28;20121;-44
2022/04/01 10:21:58;;;;;;;5.20;4.45;;;;;;;;;;5012252;28;20482;-46
2022/04/01 10:24:38;;;;;;;7.78;6.40;;;;;;;;;;5011790;28;20433;-49
2022/04/01 10:27:04;;;;;;;4.00;3.15;;;;;;;;;;5012026;28;20038;-46
2022/04/01 10:29:30;;;;;;;7.18;5.40;;;;;;;;;;5011738;28;20066;-46
2022/04/01 10:32:29;;;;;;;6.47;5.70;;;;;;;;;;5011436;28;20030;-40
2022/04/01 10:34:58;;;;;;;4.78;3.35;;;;;;;;;;5011818;28;20108;-38
2022/04/01 10:37:25;;;;;;;7.05;5.68;;;;;;;;;;5011085;28;20433;-39
2022/04/01 10:39:57;;;;;;;4.03;3.55;;;;;;;;;;5011728;28;20034;-38
2022/04/01 10:42:31;;;;;;;6.20;5.03;;;;;;;;;;5011405;28;20045;-38
2022/04/01 10:45:00;;;;;;;5.45;3.80;;;;;;;;;;4994128;28;20038;-43
2022/04/01 10:53:46;;;;;;;3.83;3.42;;;;;;;;;;5011427;28;20097;-38
2022/04/01 10:56:21;;;;;;;3.10;2.80;;;;;;;;;;5011409;28;20558;-43
2022/04/01 10:59:06;;;;;;;3.15;2.85;;;;;;;;;;5011061;28;20036;-44
2022/04/01 11:01:34;;;;;;;9.70;6.82;;;;;;;;;;5011501;28;20037;-44
2022/04/01 11:04:02;;;;;;;3.88;3.35;;;;;;;;;;5011163;28;20034;-39
2022/04/01 11:06:27;;;;;;;3.88;2.65;;;;;;;;;;5011261;28;20033;-40
2022/04/01 11:08:54;;;;;;;4.03;2.88;;;;;;;;;;5010951;28;20037;-41
2022/04/01 11:11:20;;;;;;;2.47;2.28;;;;;;;;;;5011339;28;20088;-44
2022/04/01 11:14:04;;;;;;;3.83;2.83;;;;;;;;;;5010504;28;20030;-39
2022/04/01 11:16:52;;;;;;;3.28;2.80;;;;;;;;;;5010803;28;20038;-41
2022/04/01 11:19:19;;;;;;;4.18;3.08;;;;;;;;;;5010819;28;20022;-38
2022/04/01 11:21:47;;;;;;;2.67;2.35;;;;;;;;;;5010950;28;20022;-43
2022/04/01 11:24:22;;;;;;;3.00;2.40;;;;;;;;;;5010986;28;20625;-38
2022/04/01 11:26:48;;;;;;;3.17;2.63;;;;;;;;;;5011142;28;20120;-46
2022/04/01 11:29:22;;;;;;;4.30;3.03;;;;;;;;;;5011075;28;20104;-40
2022/04/01 11:31:48;;;;;;;4.00;2.75;;;;;;;;;;5010582;28;20184;-40
2022/04/01 11:34:14;;;;;;;4.63;3.28;;;;;;;;;;5011166;28;20057;-38
2022/04/01 11:36:42;;;;;;;3.33;3.03;;;;;;;;;;5010812;28;20509;-39
2022/04/01 11:39:10;;;;;;;3.55;2.90;;;;;;;;;;5010214;28;20031;-48
2022/04/01 11:41:51;;;;;;;3.70;2.95;;;;;;;;;;5010780;28;20026;-42
2022/04/01 11:44:17;;;;;;;2.88;2.55;;;;;;;;;;5012329;28;20478;-46
2022/04/01 11:46:50;;;;;;;4.45;2.75;;;;;;;;;;4994947;28;20064;-40
2022/04/01 11:49:16;;;;;;;3.25;2.92;;;;;;;;;;5012396;28;20437;-40
2022/04/01 11:51:41;;;;;;;3.72;2.55;;;;;;;;;;5011677;28;20033;-41
2022/04/01 11:54:10;;;;;;;4.88;3.28;;;;;;;;;;5011287;28;20481;-43
2022/04/01 11:56:35;;;;;;;4.00;2.90;;;;;;;;;;5014405;28;20466;-40
2022/04/01 11:59:07;;;;;;;3.30;2.88;;;;;;;;;;5014902;28;20030;-44
2022/04/01 12:01:54;;;;;;;4.20;2.80;;;;;;;;;;5014779;28;20034;-43
2022/04/01 12:04:35;;;;;;;7.82;3.13;;;;;;;;;;5014485;28;20088;-47
2022/04/01 12:09:56;;;;;;;2.63;2.42;;;;;;;;;;5014381;28;20036;-42
2022/04/01 12:12:23;;;;;;;6.55;3.33;;;;;;;;;;5013708;28;20033;-44
2022/04/01 12:14:49;;;;;;;3.58;2.70;;;;;;;;;;5014616;28;20061;-45
2022/04/01 12:17:15;;;;;;;3.83;2.83;;;;;;;;;;5014170;28;20115;-47
2022/04/01 12:19:40;;;;;;;4.03;2.88;;;;;;;;;;4995757;28;20593;-40
2022/04/01 12:22:08;;;;;;;4.72;3.40;;;;;;;;;;5013021;28;20037;-41
2022/04/01 12:24:35;;;;;;;6.75;3.35;;;;;;;;;;5012967;28;20041;-41
2022/04/01 12:27:03;;;;;;;2.85;2.55;;;;;;;;;;4995276;28;20036;-44
2022/04/01 12:29:29;;;;;;;4.93;3.13;;;;;;;;;;5012491;28;20139;-42
2022/04/01 12:31:58;;;;;;;4.10;2.97;;;;;;;;;;5012816;28;20022;-40
2022/04/01 12:34:25;;;;;;;3.97;2.80;;;;;;;;;;5012813;28;20041;-41
2022/04/01 12:36:59;;;;;;;5.07;3.50;;;;;;;;;;5012966;28;20022;-42
2022/04/01 12:39:25;;;;;;;3.53;3.22;;;;;;;;;;5012654;28;20477;-42
2022/04/01 12:41:52;;;;;;;3.22;2.92;;;;;;;;;;5012839;28;20446;-39
2022/04/01 12:44:22;;;;;;;7.65;3.13;;;;;;;;;;5012672;28;20049;-44
2022/04/01 12:46:48;;;;;;;4.13;3.40;;;;;;;;;;5012997;28;20026;-46
2022/04/01 12:49:20;;;;;;;4.47;3.58;;;;;;;;;;5012465;28;20060;-43
2022/04/01 12:51:55;;;;;;;7.50;4.90;;;;;;;;;;5012532;28;20053;-43
2022/04/01 12:54:34;;;;;;;4.45;3.83;;;;;;;;;;5012185;28;20033;-43
2022/04/01 12:57:02;;;;;;;6.72;3.92;;;;;;;;;;5011950;28;20030;-41
2022/04/01 12:59:36;;;;;;;5.47;4.13;;;;;;;;;;5012717;28;20030;-44
2022/04/01 13:02:06;;;;;;;4.55;3.63;;;;;;;;;;5013519;28;20037;-40
2022/04/01 13:04:42;;;;;;;7.00;4.22;;;;;;;;;;5014377;28;20037;-40
2022/04/01 13:07:21;;;;;;;7.15;4.70;;;;;;;;;;5014380;28;20026;-43
2022/04/01 13:09:49;;;;;;;13.43;6.57;;;;;;;;;;5013783;28;20466;-41
2022/04/01 13:12:40;;;;;;;8.27;4.45;;;;;;;;;;5014759;28;20113;-46
2022/04/01 13:15:08;;;;;;;8.10;4.47;;;;;;;;;;5014533;28;20041;-41
2022/04/01 13:17:44;;;;;;;7.20;5.10;;;;;;;;;;5014824;28;20030;-43
2022/04/01 13:20:12;;;;;;;7.13;5.10;;;;;;;;;;5014859;28;20116;-45
2022/04/01 13:22:39;;;;;;;8.32;5.40;;;;;;;;;;5014474;28;20494;-43
2022/04/01 13:25:06;;;;;;;7.13;5.50;;;;;;;;;;5014888;28;20037;-45
2022/04/01 13:27:32;;;;;;;8.05;5.60;;;;;;;;;;5014767;28;20370;-42
2022/04/01 13:29:58;;;;;;;6.95;5.53;;;;;;;;;;5014446;28;20026;-45
2022/04/01 13:32:24;;;;;;;8.15;5.95;;;;;;;;;;5014360;28;20425;-48
2022/04/01 13:34:50;;;;;;;6.72;5.13;;;;;;;;;;5014584;28;20021;-43
2022/04/01 13:37:16;;;;;;;8.73;6.05;;;;;;;;;;5014592;28;20084;-41
2022/04/01 13:39:42;;;;;;;8.27;6.00;;;;;;;;;;5014569;28;20030;-45
2022/04/01 13:42:08;;;;;;;5.97;5.38;;;;;;;;;;5014539;28;20026;-40
2022/04/01 13:44:34;;;;;;;8.50;5.97;;;;;;;;;;5014144;28;20515;-42
2022/04/01 13:47:02;;;;;;;8.90;5.47;;;;;;;;;;5014351;28;20438;-46
2022/04/01 13:49:27;;;;;;;7.07;5.30;;;;;;;;;;5013849;28;20061;-45
2022/04/01 13:51:53;;;;;;;8.93;5.78;;;;;;;;;;5014266;28;20030;-44
2022/04/01 13:54:19;;;;;;;9.40;6.47;;;;;;;;;;5014023;28;20018;-47
2022/04/01 13:56:48;;;;;;;8.90;5.97;;;;;;;;;;5014067;28;20486;-43
2022/04/01 13:59:14;;;;;;;8.02;6.05;;;;;;;;;;5013718;28;20379;-45
2022/04/01 14:01:40;;;;;;;7.97;6.00;;;;;;;;;;5013830;28;20037;-46
2022/04/01 14:04:07;;;;;;;7.93;5.97;;;;;;;;;;5014128;28;20034;-43
2022/04/01 14:06:34;;;;;;;7.03;5.35;;;;;;;;;;4996243;28;20048;-42
2022/04/01 14:09:02;;;;;;;8.13;5.95;;;;;;;;;;5013748;28;20310;-43
2022/04/01 14:11:28;;;;;;;7.45;5.78;;;;;;;;;;5013654;28;20025;-44
2022/04/01 14:13:53;;;;;;;7.53;4.85;;;;;;;;;;5013908;28;20033;-42
2022/04/01 14:16:19;;;;;;;9.07;5.50;;;;;;;;;;5013734;28;20022;-41
2022/04/01 14:18:46;;;;;;;6.88;5.72;;;;;;;;;;5012975;28;20025;-43
2022/04/01 14:21:13;;;;;;;6.28;5.47;;;;;;;;;;5013800;28;20022;-46
2022/04/01 14:23:38;;;;;;;9.98;6.32;;;;;;;;;;5013571;28;20022;-45
2022/04/01 14:26:06;;;;;;;8.25;6.03;;;;;;;;;;5013423;28;20100;-42
2022/04/01 14:28:40;;;;;;;8.13;6.07;;;;;;;;;;5013692;28;20077;-46
2022/04/01 14:31:06;;;;;;;9.02;6.43;;;;;;;;;;5013289;28;20037;-43
2022/04/01 14:33:33;;;;;;;6.63;5.63;;;;;;;;;;5013213;28;20080;-42
2022/04/01 14:36:00;;;;;;;11.10;6.97;;;;;;;;;;5013627;28;20026;-44
2022/04/01 14:38:26;;;;;;;7.68;6.18;;;;;;;;;;5013212;28;20429;-43
2022/04/01 14:40:53;;;;;;;10.60;7.13;;;;;;;;;;5013399;28;20033;-43
2022/04/01 14:43:19;;;;;;;11.15;7.30;;;;;;;;;;5013157;28;20422;-43
2022/04/01 14:45:45;;;;;;;8.02;6.30;;;;;;;;;;5013441;28;20018;-44
2022/04/01 14:48:11;;;;;;;9.00;6.13;;;;;;;;;;5013446;28;20592;-45
2022/04/01 14:50:37;;;;;;;9.95;6.88;;;;;;;;;;5012934;28;20132;-44
2022/04/01 14:53:07;;;;;;;12.38;7.35;;;;;;;;;;5012954;28;20064;-46
2022/04/01 14:55:34;;;;;;;11.68;7.13;;;;;;;;;;5012774;28;20029;-43
2022/04/01 14:58:00;;;;;;;11.82;7.82;;;;;;;;;;5013314;28;20033;-45
2022/04/01 15:00:25;;;;;;;14.65;8.00;;;;;;;;;;5012936;28;20022;-43
2022/04/01 15:02:51;;;;;;;12.05;8.18;;;;;;;;;;5013075;28;20116;-44